Time;durP1;ratioP1;P1;durP2;ratioP2;P2;SDS_P1;SDS_P2;PMS_P1;PMS_P2;Temp;Humidity;BMP_temperature;BMP_pressure;BME280_temperature;BME280_humidity;BME280_pressure;Samples;Min_cycle;Max_cycle;Signal;HPM_P1;HPM_P2
2022/07/01 00:01:44;;;;;;;27.75;25.35;;;;;;;14.66;87.63;101394.66;5031485;28;20025;-67
2022/07/01 00:04:10;;;;;;;27.48;25.13;;;;;;;14.43;88.40;101388.00;5034791;28;20029;-66
2022/07/01 00:06:36;;;;;;;31.08;28.38;;;;;;;14.60;87.62;101389.97;5034332;28;20037;-66
2022/07/01 00:09:04;;;;;;;31.00;28.30;;;;;;;14.63;87.03;101405.38;5034119;28;20029;-67
2022/07/01 00:11:30;;;;;;;31.60;28.80;;;;;;;14.68;87.00;101397.97;5024734;28;20033;-66
2022/07/01 00:13:55;;;;;;;32.22;29.40;;;;;;;14.60;86.90;101395.19;5029004;28;20037;-68
2022/07/01 00:16:21;;;;;;;32.95;30.02;;;;;;;14.37;87.49;101397.22;5039817;28;20028;-66
2022/07/01 00:18:46;;;;;;;33.30;30.35;;;;;;;14.51;87.32;101396.03;5029072;28;20540;-66
2022/07/01 00:21:12;;;;;;;36.85;33.50;;;;;;;14.29;87.07;101404.91;5030744;28;20057;-66
2022/07/01 00:23:37;;;;;;;37.22;33.78;;;;;;;14.31;87.70;101406.41;5041695;28;20469;-67
2022/07/01 00:26:03;;;;;;;36.80;33.47;;;;;;;14.31;87.42;101411.63;5032303;28;20025;-66
2022/07/01 00:28:28;;;;;;;37.92;34.60;;;;;;;14.20;87.68;101403.91;5042126;28;20450;-66
2022/07/01 00:30:54;;;;;;;37.88;34.42;;;;;;;14.19;88.22;101412.69;5037151;28;20060;-66
2022/07/01 00:33:19;;;;;;;37.90;34.45;;;;;;;14.15;88.34;101400.88;5043186;28;20025;-66
2022/07/01 00:35:44;;;;;;;37.78;34.28;;;;;;;14.10;88.60;101405.66;5028628;28;20386;-67
2022/07/01 00:38:10;;;;;;;38.03;34.53;;;;;;;14.09;89.10;101396.19;5047020;28;20057;-66
2022/07/01 00:40:35;;;;;;;38.55;35.15;;;;;;;14.11;88.78;101388.22;5028081;28;20025;-66
2022/07/01 00:43:01;;;;;;;39.47;35.97;;;;;;;14.05;89.24;101413.09;5025976;28;20045;-66
2022/07/01 00:45:27;;;;;;;39.05;35.63;;;;;;;14.11;88.83;101412.56;5031183;28;20029;-66
2022/07/01 00:47:52;;;;;;;40.15;36.45;;;;;;;14.11;89.25;101398.66;5043821;28;20032;-65
2022/07/01 00:50:18;;;;;;;40.80;37.05;;;;;;;13.93;89.34;101380.22;5040397;28;20095;-66
2022/07/01 00:52:45;;;;;;;40.78;37.10;;;;;;;14.13;88.93;101413.25;5038384;28;20035;-66
2022/07/01 00:55:12;;;;;;;41.38;37.78;;;;;;;14.10;89.56;101413.50;5033750;28;20036;-66
2022/07/01 00:57:40;;;;;;;42.13;38.33;;;;;;;14.07;89.42;101408.56;5039526;28;20029;-66
2022/07/01 01:00:21;;;;;;;40.70;37.17;;;;;;;14.00;90.54;101397.03;5038481;28;20041;-67
2022/07/01 01:02:47;;;;;;;40.00;36.30;;;;;;;13.98;90.00;101398.91;5038811;28;20061;-66
2022/07/01 01:05:12;;;;;;;38.70;35.35;;;;;;;13.93;89.96;101391.50;5031936;28;20533;-66
2022/07/01 01:07:38;;;;;;;38.88;35.40;;;;;;;14.05;89.29;101405.28;5044816;28;20424;-66
2022/07/01 01:10:04;;;;;;;37.85;34.47;;;;;;;13.91;89.85;101408.25;5041529;28;20070;-66
2022/07/01 01:12:29;;;;;;;37.85;34.47;;;;;;;13.90;90.60;101402.19;5046367;28;20031;-67
2022/07/01 01:14:57;;;;;;;36.67;33.47;;;;;;;13.97;89.39;101412.91;5040741;28;20021;-66
2022/07/01 01:17:23;;;;;;;35.95;32.75;;;;;;;14.07;89.26;101413.78;5028249;28;20026;-66
2022/07/01 01:19:50;;;;;;;36.40;33.20;;;;;;;14.09;89.07;101419.69;5039447;28;20075;-67
2022/07/01 01:22:17;;;;;;;36.83;33.45;;;;;;;14.10;88.73;101434.38;5046669;28;20096;-66
2022/07/01 01:24:44;;;;;;;35.67;32.58;;;;;;;14.15;88.61;101437.41;5035134;28;20051;-67
2022/07/01 01:27:10;;;;;;;36.17;33.05;;;;;;;14.14;88.43;101435.75;5042383;28;20103;-67
2022/07/01 01:29:37;;;;;;;36.80;33.58;;;;;;;13.91;89.18;101442.13;5038572;28;20103;-66
2022/07/01 01:32:03;;;;;;;36.65;33.45;;;;;;;14.03;88.95;101459.34;5027491;28;20032;-66
2022/07/01 01:34:29;;;;;;;36.55;33.35;;;;;;;13.79;89.11;101449.22;5038131;28;20063;-66
2022/07/01 01:36:54;;;;;;;36.72;33.47;;;;;;;13.79;89.25;101447.44;5042645;28;20029;-66
2022/07/01 01:39:20;;;;;;;35.55;32.38;;;;;;;13.97;88.38;101455.47;5036667;28;20028;-66
2022/07/01 01:41:47;;;;;;;38.15;34.88;;;;;;;13.83;89.37;101458.44;5040145;28;20061;-66
2022/07/01 01:44:13;;;;;;;37.85;34.45;;;;;;;13.85;89.04;101453.09;5045503;28;20072;-66
2022/07/01 01:46:39;;;;;;;38.42;35.13;;;;;;;13.84;89.59;101441.84;5045877;28;20035;-66
2022/07/01 01:49:05;;;;;;;37.83;34.42;;;;;;;13.80;89.46;101449.09;5037572;28;20037;-66
2022/07/01 01:51:31;;;;;;;37.33;34.08;;;;;;;13.77;89.35;101444.16;5038066;28;20064;-66
2022/07/01 01:53:57;;;;;;;37.17;33.88;;;;;;;13.95;88.86;101446.13;5037204;28;20099;-66
2022/07/01 01:56:23;;;;;;;37.00;33.75;;;;;;;13.93;88.71;101461.91;5031175;28;20348;-68
2022/07/01 01:58:49;;;;;;;38.85;35.38;;;;;;;13.78;89.48;101471.88;5042559;28;20135;-66
2022/07/01 02:01:16;;;;;;;37.45;34.13;;;;;;;13.74;89.51;101465.25;5042558;28;20035;-66
2022/07/01 02:03:44;;;;;;;39.55;36.10;;;;;;;13.68;89.78;101460.56;5031963;28;20025;-67
2022/07/01 02:06:10;;;;;;;39.27;35.77;;;;;;;13.52;89.90;101434.13;5037052;28;20071;-67
2022/07/01 02:08:37;;;;;;;38.88;35.47;;;;;;;13.71;89.85;101439.47;5038919;28;20071;-67
2022/07/01 02:11:03;;;;;;;39.13;35.58;;;;;;;13.55;90.45;101421.69;5044621;28;20459;-66
2022/07/01 02:13:29;;;;;;;38.75;35.35;;;;;;;13.62;90.08;101440.22;5041065;28;20032;-66
2022/07/01 02:15:54;;;;;;;39.33;35.83;;;;;;;13.66;90.44;101440.81;5045340;28;20369;-66
2022/07/01 02:18:20;;;;;;;40.67;37.03;;;;;;;13.62;90.53;101450.66;5033142;28;20025;-66
2022/07/01 02:20:45;;;;;;;39.17;35.70;;;;;;;13.69;90.82;101446.56;5035616;28;20120;-66
2022/07/01 02:23:11;;;;;;;41.13;37.42;;;;;;;13.69;90.12;101445.75;5046238;28;20048;-66
2022/07/01 02:25:36;;;;;;;40.55;36.85;;;;;;;13.86;89.82;101458.16;5029724;28;20579;-66
2022/07/01 02:28:02;;;;;;;40.55;36.85;;;;;;;13.70;90.70;101473.47;5037842;28;20152;-66
2022/07/01 02:30:28;;;;;;;39.63;36.08;;;;;;;13.87;89.79;101474.63;5026584;28;20499;-66
2022/07/01 02:32:53;;;;;;;39.42;35.90;;;;;;;13.94;89.14;101486.22;5038741;28;20033;-67
2022/07/01 02:35:19;;;;;;;41.05;37.50;;;;;;;13.82;89.70;101483.69;5035049;28;20025;-67
2022/07/01 02:37:45;;;;;;;41.38;37.47;;;;;;;13.80;90.06;101495.19;5039447;28;20376;-66
2022/07/01 02:40:12;;;;;;;41.78;37.97;;;;;;;13.79;89.88;101486.56;5042917;28;20028;-66
2022/07/01 02:42:38;;;;;;;40.10;36.60;;;;;;;13.69;89.93;101475.25;5041123;28;21101;-66
2022/07/01 02:45:04;;;;;;;41.72;38.08;;;;;;;13.70;90.15;101484.72;5046285;28;20031;-66
2022/07/01 02:47:39;;;;;;;43.03;38.83;;;;;;;13.62;89.97;101457.66;5038632;28;20020;-69
2022/07/01 02:50:07;;;;;;;41.17;37.58;;;;;;;13.85;90.06;101461.75;5038677;28;20350;-66
2022/07/01 02:52:34;;;;;;;42.08;38.25;;;;;;;13.85;89.93;101456.53;5031021;28;20033;-66
2022/07/01 02:55:00;;;;;;;43.10;39.15;;;;;;;13.70;90.20;101453.44;5034315;28;20024;-66
2022/07/01 02:57:26;;;;;;;42.03;38.22;;;;;;;13.82;89.76;101456.81;5041366;28;20029;-66
2022/07/01 02:59:51;;;;;;;43.97;39.88;;;;;;;13.72;90.27;101456.75;5043905;28;20555;-65
2022/07/01 03:02:18;;;;;;;42.90;39.00;;;;;;;13.84;89.25;101469.69;5035481;28;20041;-66
2022/07/01 03:04:43;;;;;;;44.08;39.92;;;;;;;13.65;90.05;101471.25;5038994;28;20734;-66
2022/07/01 03:07:09;;;;;;;45.08;40.88;;;;;;;13.73;89.56;101452.34;5038339;28;20021;-70
2022/07/01 03:09:35;;;;;;;44.33;40.22;;;;;;;13.74;89.65;101473.06;5038041;28;20551;-67
2022/07/01 03:12:24;;;;;;;43.85;39.63;;;;;;;13.71;90.14;101473.34;5041419;28;20029;-66
2022/07/01 03:14:45;;;;;;;41.65;37.83;;;;;;;13.75;89.69;101490.38;5043940;28;20033;-66
2022/07/01 03:17:11;;;;;;;42.42;38.60;;;;;;;13.76;89.31;101481.63;5036918;28;20081;-67
2022/07/01 03:19:36;;;;;;;41.65;37.75;;;;;;;13.80;88.74;101484.75;5039534;28;20096;-66
2022/07/01 03:22:01;;;;;;;42.85;38.85;;;;;;;13.61;89.78;101480.28;5031153;28;20088;-65
2022/07/01 03:24:27;;;;;;;43.25;39.15;;;;;;;13.81;89.54;101487.22;5043966;28;20021;-67
2022/07/01 03:26:52;;;;;;;42.65;38.55;;;;;;;13.85;88.88;101487.00;5032174;28;20017;-66
2022/07/01 03:29:17;;;;;;;42.22;38.35;;;;;;;13.93;88.59;101493.19;5042669;28;20120;-66
2022/07/01 03:31:43;;;;;;;41.65;37.65;;;;;;;13.86;89.13;101504.28;5043499;28;20061;-68
2022/07/01 03:34:08;;;;;;;43.20;39.10;;;;;;;13.89;88.81;101483.19;5030163;28;20026;-66
2022/07/01 03:36:33;;;;;;;42.30;38.38;;;;;;;13.91;88.45;101483.84;5036685;28;20491;-66
2022/07/01 03:39:00;;;;;;;42.72;38.45;;;;;;;13.94;88.47;101486.22;5042884;28;20472;-66
2022/07/01 03:41:26;;;;;;;43.00;38.90;;;;;;;13.96;87.90;101495.56;5035342;28;20049;-66
2022/07/01 03:43:51;;;;;;;43.38;39.13;;;;;;;13.93;87.86;101500.19;5036683;28;20025;-66
2022/07/01 03:46:17;;;;;;;43.08;38.80;;;;;;;13.91;88.46;101512.53;5044615;28;20104;-67
2022/07/01 03:48:42;;;;;;;46.17;41.60;;;;;;;13.74;89.45;101512.19;5045938;28;20056;-66
2022/07/01 03:51:08;;;;;;;44.55;40.15;;;;;;;13.85;89.25;101518.28;5045786;28;20024;-67
2022/07/01 03:56:18;;;;;;;46.00;41.40;;;;;;;13.74;89.67;101516.56;5047413;28;20527;-66
2022/07/01 03:58:43;;;;;;;45.42;40.75;;;;;;;13.88;89.13;101518.00;5048193;28;20025;-66
2022/07/01 04:01:08;;;;;;;45.90;41.42;;;;;;;13.88;88.82;101523.22;5047446;28;20449;-66
2022/07/01 04:03:34;;;;;;;45.85;41.17;;;;;;;13.92;88.47;101529.84;5043855;28;20571;-67
2022/07/01 04:05:59;;;;;;;47.40;42.63;;;;;;;13.75;89.23;101534.69;5048549;28;20028;-67
2022/07/01 04:08:25;;;;;;;45.20;40.70;;;;;;;13.87;88.64;101538.03;5029669;28;20620;-66
2022/07/01 04:10:53;;;;;;;45.67;41.10;;;;;;;13.91;88.52;101543.84;5043408;28;20036;-66
2022/07/01 04:13:18;;;;;;;45.15;40.65;;;;;;;13.86;88.61;101535.56;5045531;28;20033;-67
2022/07/01 04:15:44;;;;;;;44.95;40.55;;;;;;;13.92;87.95;101542.88;5040608;28;20037;-67
2022/07/01 04:18:10;;;;;;;46.22;41.47;;;;;;;13.91;88.48;101549.06;5032974;28;20025;-66
2022/07/01 04:20:35;;;;;;;44.50;40.20;;;;;;;13.90;88.39;101550.00;5041756;28;20393;-66
2022/07/01 04:23:01;;;;;;;44.53;39.92;;;;;;;13.94;87.98;101546.19;5040399;28;20457;-66
2022/07/01 04:25:29;;;;;;;45.22;40.63;;;;;;;13.69;89.40;101558.66;5029813;28;20029;-67
2022/07/01 04:27:55;;;;;;;;;;;;;;;13.97;87.86;101553.75;5035200;28;20031;-67
2022/07/01 04:30:20;;;;;;;43.97;39.38;;;;;;;13.75;88.15;101542.50;5045355;28;20367;-66
2022/07/01 04:32:45;;;;;;;43.10;38.67;;;;;;;13.76;88.56;101541.56;5046852;28;20475;-66
2022/07/01 04:35:12;;;;;;;41.95;37.78;;;;;;;13.78;88.33;101534.44;5047479;28;20075;-68
2022/07/01 04:37:38;;;;;;;42.00;37.53;;;;;;;13.79;88.40;101530.88;5046982;28;20029;-66
2022/07/01 04:40:04;;;;;;;43.45;38.88;;;;;;;13.60;88.60;101509.91;5036845;28;20029;-66
2022/07/01 04:42:30;;;;;;;42.80;38.30;;;;;;;13.63;88.88;101514.84;5044418;28;20080;-67
2022/07/01 04:44:55;;;;;;;42.25;37.67;;;;;;;13.66;88.55;101519.84;5040013;28;20425;-66
2022/07/01 04:47:22;;;;;;;42.50;38.03;;;;;;;13.50;88.88;101540.28;5033434;28;20596;-67
2022/07/01 04:49:47;;;;;;;40.63;35.92;;;;;;;13.55;88.78;101538.13;5047144;28;20052;-67
2022/07/01 04:52:13;;;;;;;40.80;36.60;;;;;;;13.62;88.45;101538.44;5033387;28;20149;-66
2022/07/01 04:54:38;;;;;;;41.63;37.15;;;;;;;13.59;88.66;101544.75;5033357;28;20031;-66
2022/07/01 04:57:04;;;;;;;42.20;37.72;;;;;;;13.44;89.26;101551.22;5046548;28;20025;-66
2022/07/01 04:59:29;;;;;;;40.08;35.28;;;;;;;13.44;89.22;101551.22;5042539;28;20049;-66
2022/07/01 05:01:54;;;;;;;39.88;35.67;;;;;;;13.53;88.71;101555.66;5047692;28;20457;-68
2022/07/01 05:04:20;;;;;;;41.80;37.33;;;;;;;13.49;88.77;101559.50;5032165;28;20588;-67
2022/07/01 05:06:45;;;;;;;41.75;37.25;;;;;;;13.38;89.12;101551.72;5042257;28;20385;-66
2022/07/01 05:09:11;;;;;;;40.95;36.55;;;;;;;13.42;89.48;101553.13;5028646;28;20029;-66
2022/07/01 05:11:38;;;;;;;41.45;37.05;;;;;;;13.42;89.78;101550.50;5028846;28;20123;-67
2022/07/01 05:14:04;;;;;;;41.55;36.22;;;;;;;13.40;89.43;101544.59;5039402;28;20037;-66
2022/07/01 05:16:29;;;;;;;43.00;37.58;;;;;;;13.39;90.18;101542.97;5040340;28;20029;-66
2022/07/01 05:21:57;;;;;;;41.70;37.40;;;;;;;13.22;90.48;101532.13;5033887;28;20060;-67
2022/07/01 05:24:28;;;;;;;40.25;35.95;;;;;;;13.41;89.79;101561.88;5028669;28;20017;-67
2022/07/01 05:26:53;;;;;;;40.75;36.45;;;;;;;13.51;89.17;101558.41;5028289;28;20021;-66
2022/07/01 05:29:19;;;;;;;41.70;37.10;;;;;;;13.46;89.80;101557.94;5042983;28;20461;-66
2022/07/01 05:31:44;;;;;;;41.95;37.45;;;;;;;13.49;89.20;101554.28;5040044;28;20072;-67
2022/07/01 05:34:10;;;;;;;44.75;37.92;;;;;;;13.51;88.97;101558.41;5032072;28;20075;-67
2022/07/01 05:36:35;;;;;;;40.45;36.05;;;;;;;13.55;88.44;101559.81;5033903;28;20658;-66
2022/07/01 05:39:01;;;;;;;41.17;36.85;;;;;;;13.56;88.38;101565.84;5028575;28;20025;-66
2022/07/01 05:41:27;;;;;;;40.90;36.58;;;;;;;13.63;88.04;101561.78;5034423;28;20075;-67
2022/07/01 05:43:53;;;;;;;41.22;36.72;;;;;;;13.49;88.69;101549.06;5040221;28;20028;-67
2022/07/01 05:46:18;;;;;;;42.42;37.78;;;;;;;13.54;88.69;101552.13;5032584;28;20553;-66
2022/07/01 05:48:43;;;;;;;42.00;37.35;;;;;;;13.53;89.23;101547.84;5040274;28;20032;-67
2022/07/01 05:51:09;;;;;;;41.63;37.13;;;;;;;13.44;89.53;101540.81;5042484;28;20025;-69
2022/07/01 05:53:34;;;;;;;42.25;37.72;;;;;;;13.57;89.11;101549.25;5040630;28;20037;-68
2022/07/01 05:55:59;;;;;;;41.60;37.03;;;;;;;13.68;89.06;101564.84;5031156;28;20033;-66
2022/07/01 05:58:25;;;;;;;40.65;36.30;;;;;;;13.78;88.14;101570.94;5031533;28;20018;-66
2022/07/01 06:00:50;;;;;;;41.83;37.10;;;;;;;13.82;87.80;101574.97;5039822;28;20132;-66
2022/07/01 06:03:16;;;;;;;41.55;37.00;;;;;;;13.60;88.34;101556.84;5035106;28;20480;-67
2022/07/01 06:05:41;;;;;;;42.28;36.92;;;;;;;13.79;88.18;101571.78;5036162;28;20051;-69
2022/07/01 06:08:07;;;;;;;42.85;37.88;;;;;;;13.85;87.54;101560.00;5042114;28;20032;-66
2022/07/01 06:10:34;;;;;;;40.60;36.38;;;;;;;13.91;87.13;101564.69;5039541;28;20326;-66
2022/07/01 06:12:59;;;;;;;43.15;38.42;;;;;;;13.66;87.90;101566.75;5035149;28;20052;-66
2022/07/01 06:15:25;;;;;;;41.35;36.95;;;;;;;13.73;87.91;101570.50;5041526;28;20052;-66
2022/07/01 06:17:51;;;;;;;41.15;36.75;;;;;;;13.67;87.85;101563.19;5045257;28;20055;-66
2022/07/01 06:20:17;;;;;;;41.80;37.25;;;;;;;13.81;88.66;101568.06;5041048;28;20029;-66
2022/07/01 06:22:42;;;;;;;41.75;37.28;;;;;;;13.90;88.01;101568.28;5028168;28;20017;-67
2022/07/01 06:25:08;;;;;;;41.22;36.53;;;;;;;13.94;88.05;101564.47;5027959;28;20031;-68
2022/07/01 06:27:40;;;;;;;39.60;35.30;;;;;;;13.95;87.86;101563.50;5042271;28;20473;-68
2022/07/01 06:30:06;;;;;;;41.35;37.00;;;;;;;14.01;87.29;101565.59;5035311;28;20028;-67
2022/07/01 06:32:32;;;;;;;41.40;37.17;;;;;;;13.82;87.59;101561.91;5034337;28;20021;-66
2022/07/01 06:34:57;;;;;;;40.88;36.58;;;;;;;14.00;87.07;101553.50;5026121;28;20097;-68
2022/07/01 06:37:22;;;;;;;40.60;36.20;;;;;;;13.94;87.67;101554.03;5027336;28;20068;-66
2022/07/01 06:39:48;;;;;;;38.95;34.85;;;;;;;14.01;87.52;101549.94;5030997;28;20057;-66
2022/07/01 06:42:13;;;;;;;40.10;36.00;;;;;;;14.15;87.03;101557.41;5039431;28;20516;-71
2022/07/01 06:44:38;;;;;;;39.40;35.15;;;;;;;14.26;87.32;101554.72;5044097;28;20033;-67
2022/07/01 06:47:04;;;;;;;37.63;33.60;;;;;;;14.35;87.69;101553.09;5032734;28;20048;-67
2022/07/01 06:49:29;;;;;;;35.72;31.42;;;;;;;14.33;86.01;101550.59;5039097;28;20029;-67
2022/07/01 06:51:55;;;;;;;36.20;31.92;;;;;;;14.47;87.98;101556.47;5025023;28;20626;-67
2022/07/01 06:54:20;;;;;;;34.85;31.10;;;;;;;14.61;86.81;101564.75;5028586;28;20104;-66
2022/07/01 06:56:45;;;;;;;33.60;30.10;;;;;;;14.61;86.70;101569.16;5027783;28;20025;-71
2022/07/01 06:59:11;;;;;;;31.23;27.85;;;;;;;14.57;86.59;101567.78;5024977;28;20476;-67
2022/07/01 07:01:37;;;;;;;29.80;26.65;;;;;;;14.62;87.36;101560.34;5037956;28;20169;-67
2022/07/01 07:04:02;;;;;;;29.98;24.90;;;;;;;14.63;85.94;101567.25;5036275;28;20082;-69
2022/07/01 07:06:28;;;;;;;26.65;23.75;;;;;;;14.66;85.96;101556.53;5039043;28;20062;-67
2022/07/01 07:08:54;;;;;;;24.35;21.73;;;;;;;14.81;85.78;101575.25;5037181;28;20029;-67
2022/07/01 07:11:19;;;;;;;23.23;19.73;;;;;;;14.75;85.34;101571.41;5022754;28;20386;-69
2022/07/01 07:13:45;;;;;;;22.20;19.90;;;;;;;14.92;86.45;101576.94;5043190;28;20116;-66
2022/07/01 07:16:11;;;;;;;21.63;18.35;;;;;;;15.03;85.26;101589.88;5031115;28;20100;-67
2022/07/01 07:18:36;;;;;;;18.25;15.82;;;;;;;14.94;84.49;101590.69;5029198;28;20041;-66
2022/07/01 07:21:03;;;;;;;20.20;16.17;;;;;;;15.02;84.81;101599.47;5026481;28;20052;-69
2022/07/01 07:23:28;;;;;;;16.40;13.70;;;;;;;15.16;83.67;101595.66;5035592;28;20037;-68
2022/07/01 07:25:54;;;;;;;15.95;14.25;;;;;;;15.14;83.60;101594.97;5032676;28;20434;-70
2022/07/01 07:28:20;;;;;;;16.58;12.48;;;;;;;15.22;82.87;101597.72;5028062;28;20028;-69
2022/07/01 07:30:45;;;;;;;16.63;12.55;;;;;;;15.16;82.90;101590.44;5036028;28;20099;-68
2022/07/01 07:33:11;;;;;;;17.20;11.95;;;;;;;15.12;81.67;101592.47;5032869;28;20061;-67
2022/07/01 07:35:37;;;;;;;14.93;10.77;;;;;;;15.11;80.93;101613.53;5034723;28;20061;-68
2022/07/01 07:38:02;;;;;;;15.82;11.40;;;;;;;15.23;81.66;101622.06;5049592;28;20052;-66
2022/07/01 07:40:27;;;;;;;13.90;11.13;;;;;;;15.30;81.15;101603.09;5045335;28;20021;-67
2022/07/01 07:42:53;;;;;;;15.43;11.57;;;;;;;15.37;82.03;101619.91;5033436;28;20520;-67
2022/07/01 07:45:19;;;;;;;12.82;10.52;;;;;;;15.55;80.63;101621.81;5048303;28;20032;-67
2022/07/01 07:47:48;;;;;;;13.77;9.32;;;;;;;15.56;80.28;101626.91;5036653;28;20564;-66
2022/07/01 07:50:13;;;;;;;12.57;10.13;;;;;;;15.65;80.09;101622.66;5030971;28;20029;-69
2022/07/01 07:52:39;;;;;;;16.10;9.90;;;;;;;15.77;79.14;101615.47;5029218;28;20029;-67
2022/07/01 07:55:07;;;;;;;12.75;9.43;;;;;;;15.83;77.92;101610.53;5039746;28;20112;-67
2022/07/01 07:57:35;;;;;;;14.27;9.10;;;;;;;15.86;79.16;101615.47;5044215;28;20116;-67
2022/07/01 08:00:00;;;;;;;13.82;8.93;;;;;;;15.99;78.18;101617.78;5029774;28;20479;-66
2022/07/01 08:02:25;;;;;;;12.35;9.43;;;;;;;16.13;77.58;101616.53;5041076;28;20029;-68
2022/07/01 08:04:51;;;;;;;12.77;8.90;;;;;;;16.15;76.28;101619.81;5042196;28;20453;-67
2022/07/01 08:07:16;;;;;;;13.40;8.77;;;;;;;16.22;76.73;101618.28;5032260;28;20022;-67
2022/07/01 08:09:46;;;;;;;12.95;8.70;;;;;;;16.08;76.33;101623.97;5028014;28;20025;-66
2022/07/01 08:12:12;;;;;;;11.32;7.43;;;;;;;16.24;75.87;101626.84;5028812;28;20107;-66
2022/07/01 08:14:38;;;;;;;11.10;7.05;;;;;;;16.34;75.25;101619.75;5039330;28;20033;-67
2022/07/01 08:17:03;;;;;;;11.00;6.88;;;;;;;16.44;75.23;101633.63;5046525;28;20566;-67
2022/07/01 08:19:29;;;;;;;10.50;6.80;;;;;;;16.23;73.48;101627.81;5043975;28;20047;-67
2022/07/01 08:21:54;;;;;;;10.38;6.43;;;;;;;16.24;74.41;101639.94;5030538;28;20103;-66
2022/07/01 08:24:20;;;;;;;9.38;4.72;;;;;;;16.25;72.12;101652.03;5046207;28;20021;-66
2022/07/01 08:26:45;;;;;;;8.50;4.05;;;;;;;16.34;73.10;101655.59;5033051;28;20057;-67
2022/07/01 08:29:10;;;;;;;9.45;4.57;;;;;;;16.38;72.67;101655.16;5036272;28;20112;-66
2022/07/01 08:31:36;;;;;;;9.18;4.18;;;;;;;16.51;72.76;101646.16;5035460;28;20026;-66
2022/07/01 08:34:02;;;;;;;8.45;4.18;;;;;;;16.66;72.67;101655.19;5034606;28;20063;-70
2022/07/01 08:36:27;;;;;;;8.55;3.47;;;;;;;16.72;72.31;101665.97;5036596;28;20029;-66
2022/07/01 08:38:53;;;;;;;8.07;4.15;;;;;;;16.79;71.46;101671.44;5026196;28;20431;-66
2022/07/01 08:41:19;;;;;;;11.18;4.72;;;;;;;16.76;71.43;101666.50;5028799;28;20111;-66
2022/07/01 08:43:45;;;;;;;8.60;4.28;;;;;;;16.76;71.48;101665.69;5040487;28;20107;-69
2022/07/01 08:46:11;;;;;;;6.25;4.05;;;;;;;16.75;71.51;101680.56;5037184;28;20492;-67
2022/07/01 08:48:36;;;;;;;10.68;4.63;;;;;;;16.80;72.13;101682.75;5040227;28;20381;-66
2022/07/01 08:51:04;;;;;;;9.35;5.25;;;;;;;16.89;71.90;101687.13;5032571;28;20024;-66
2022/07/01 08:53:30;;;;;;;9.15;5.47;;;;;;;17.04;71.01;101679.59;5036828;28;20560;-66
2022/07/01 08:58:40;;;;;;;10.00;4.90;;;;;;;17.41;70.46;101664.59;5035489;28;20048;-66
2022/07/01 09:01:23;;;;;;;9.30;4.90;;;;;;;17.49;69.67;101685.66;5040620;28;20440;-67
2022/07/01 09:03:53;;;;;;;7.60;3.97;;;;;;;17.42;68.84;101681.97;5039669;28;20055;-67
2022/07/01 09:06:21;;;;;;;7.18;4.22;;;;;;;17.44;68.84;101676.59;5044351;28;20478;-66
2022/07/01 09:08:47;;;;;;;8.98;4.30;;;;;;;17.66;68.25;101680.53;5041103;28;20029;-68
2022/07/01 09:11:25;;;;;;;7.78;3.08;;;;;;;17.47;66.17;101671.03;5027226;28;20117;-66
2022/07/01 09:14:11;;;;;;;4.78;3.17;;;;;;;17.80;66.62;101672.19;5034049;28;20029;-68
2022/07/01 09:16:46;;;;;;;6.35;2.90;;;;;;;17.98;65.71;101686.09;5042734;28;20135;-66
2022/07/01 09:19:14;;;;;;;3.80;2.03;;;;;;;17.90;62.56;101687.84;5035952;28;20446;-66
2022/07/01 09:21:39;;;;;;;6.80;1.70;;;;;;;17.99;61.27;101655.44;5032823;28;20036;-67
2022/07/01 09:24:27;;;;;;;6.07;1.83;;;;;;;18.28;64.00;101678.75;5034092;28;20029;-67
2022/07/01 09:27:00;;;;;;;5.78;1.70;;;;;;;18.36;63.66;101673.56;5037651;28;20492;-66
2022/07/01 09:29:32;;;;;;;6.32;2.20;;;;;;;18.37;62.45;101680.47;5046196;28;20085;-66
2022/07/01 09:31:58;;;;;;;5.45;2.05;;;;;;;18.47;61.53;101675.94;5043427;28;20036;-66
2022/07/01 09:34:24;;;;;;;5.75;2.15;;;;;;;18.47;61.00;101675.94;5039221;28;20048;-66
2022/07/01 09:36:54;;;;;;;5.15;1.92;;;;;;;18.36;61.05;101683.25;5037739;28;20041;-67
2022/07/01 09:39:20;;;;;;;6.05;2.10;;;;;;;18.30;59.36;101674.19;5039655;28;20028;-65
2022/07/01 09:41:45;;;;;;;5.32;1.98;;;;;;;18.39;61.11;101668.00;5035539;28;20053;-66
2022/07/01 09:44:10;;;;;;;3.88;1.83;;;;;;;18.54;60.84;101676.13;5039195;28;20384;-65
2022/07/01 09:46:36;;;;;;;5.95;1.77;;;;;;;18.64;59.31;101681.25;5045543;28;20029;-67
2022/07/01 09:49:02;;;;;;;7.88;2.10;;;;;;;18.72;61.81;101678.69;5029889;28;20060;-65
2022/07/01 09:51:29;;;;;;;3.97;1.90;;;;;;;18.74;59.36;101672.28;5034537;28;20041;-66
2022/07/01 09:53:56;;;;;;;6.93;2.00;;;;;;;18.83;58.77;101681.88;5045374;28;20064;-66
2022/07/01 09:56:23;;;;;;;5.13;2.17;;;;;;;18.91;59.89;101688.97;5045937;28;20031;-65
2022/07/01 09:58:48;;;;;;;5.20;2.20;;;;;;;18.96;56.86;101691.13;5033666;28;20040;-66
2022/07/01 10:01:14;;;;;;;5.28;1.77;;;;;;;18.80;57.50;101691.88;5028172;28;20497;-68
2022/07/01 10:03:40;;;;;;;3.92;1.70;;;;;;;18.86;56.24;101701.75;5037725;28;20357;-67
2022/07/01 10:06:06;;;;;;;4.50;1.67;;;;;;;18.90;56.35;101705.72;5043465;28;20590;-65
2022/07/01 10:08:55;;;;;;;4.25;1.98;;;;;;;19.08;57.38;101711.69;5044245;28;20028;-68
2022/07/01 10:11:50;;;;;;;3.65;1.80;;;;;;;19.20;58.04;101714.03;5031729;28;20484;-66
2022/07/01 10:14:16;;;;;;;7.43;2.20;;;;;;;19.29;57.75;101710.44;5036198;28;20599;-66
2022/07/01 10:16:48;;;;;;;4.43;2.00;;;;;;;19.16;55.96;101723.25;5041970;28;20079;-65
2022/07/01 10:19:19;;;;;;;4.45;1.73;;;;;;;19.43;56.56;101720.34;5039063;28;20039;-68
2022/07/01 10:21:45;;;;;;;7.03;2.30;;;;;;;19.42;55.29;101721.31;5029863;28;20477;-66
2022/07/01 10:24:15;;;;;;;5.13;2.10;;;;;;;19.50;55.43;101716.09;5044984;28;20016;-66
2022/07/01 10:26:41;;;;;;;5.80;2.30;;;;;;;19.79;54.98;101730.66;5030875;28;20099;-67
2022/07/01 10:29:33;;;;;;;5.93;2.20;;;;;;;19.88;56.99;101724.38;5027606;28;20018;-66
2022/07/01 10:32:08;;;;;;;6.28;2.63;;;;;;;19.98;53.31;101735.56;5027440;28;20033;-66
2022/07/01 10:34:38;;;;;;;6.75;2.22;;;;;;;19.73;54.71;101741.81;5035031;28;20028;-65
2022/07/01 10:37:08;;;;;;;6.13;2.40;;;;;;;19.84;54.67;101733.59;5039294;28;20033;-66
2022/07/01 10:40:01;;;;;;;5.35;1.80;;;;;;;19.88;56.00;101732.28;5044100;28;20103;-68
2022/07/01 10:42:31;;;;;;;4.03;1.60;;;;;;;19.81;52.93;101731.28;5041744;28;20061;-66
2022/07/01 10:45:11;;;;;;;5.90;2.10;;;;;;;19.92;55.28;101728.34;5027847;28;20108;-65
2022/07/01 10:47:38;;;;;;;6.57;1.90;;;;;;;20.09;53.70;101722.09;5038949;28;20040;-66
2022/07/01 10:50:12;;;;;;;3.40;1.53;;;;;;;20.09;53.28;101722.09;5045997;28;20040;-66
2022/07/01 10:52:39;;;;;;;5.07;1.67;;;;;;;19.91;52.99;101724.06;5040505;28;20272;-66
2022/07/01 10:55:07;;;;;;;5.72;1.80;;;;;;;20.02;52.40;101728.19;5035951;28;20351;-66
2022/07/01 10:57:41;;;;;;;4.78;2.00;;;;;;;20.10;54.31;101733.44;5038244;28;20040;-66
2022/07/01 11:00:06;;;;;;;6.32;2.47;;;;;;;20.54;53.10;101728.63;5035965;28;20024;-66
2022/07/01 11:02:38;;;;;;;4.07;1.55;;;;;;;20.57;52.86;101725.66;5039460;28;20492;-66
2022/07/01 11:05:09;;;;;;;4.50;1.65;;;;;;;20.44;51.67;101738.50;5042769;28;20037;-65
2022/07/01 11:07:37;;;;;;;6.15;1.67;;;;;;;20.41;52.14;101738.81;5042725;28;20462;-69
2022/07/01 11:10:05;;;;;;;5.78;1.85;;;;;;;20.22;52.09;101731.28;5040165;28;21003;-67
2022/07/01 11:12:31;;;;;;;5.55;1.30;;;;;;;20.32;53.86;101732.75;5025446;28;20037;-66
2022/07/01 11:14:58;;;;;;;4.07;1.50;;;;;;;20.31;54.31;101730.28;5026015;28;20032;-66
2022/07/01 11:17:25;;;;;;;6.53;1.92;;;;;;;20.23;52.14;101728.47;5038530;28;20497;-65
2022/07/01 11:19:54;;;;;;;5.22;1.58;;;;;;;20.11;52.12;101729.81;5041502;28;20111;-68
2022/07/01 11:22:21;;;;;;;6.20;1.70;;;;;;;20.39;54.26;101722.38;5026334;28;20033;-67